Portada
METAR-TAF:

METAR-TAF

Aeroports :

Koror, Babeldaob, Palau

latitud: 07-22N, longitud: 134-32E, altitud: 54 m

Observació

L'informe es va fer fa 46 minuts, a les 05:50 UTC
Vent 8 kt del Est
Temperatura 29°C
Humitat 74%
Pressió 1009 hPa
Visibilitat: 24.1 km
Núvols disperses a una alçada de 1600 ft, Cumulonimbus.
Núvols disperses a una alçada de 2000 ft
Cel ennuvolat a una alçada de 12000 ft
Cel ennuvolat a una alçada de 30000 ft

METAR: PTRO 270550Z 08008KT 15SM SCT016CB SCT020 BKN120 BKN300 29/24 A2979 RMK CB W-NW

Hora: 15:36 (06:36 UTC)

Pronòstic

L'informe es va fer fa 57 minuts, a les 05:39 UTC
Pronòstic vàlid del 27 a les 06 UTC al 28 a les 06 UTC
Vent 10 kt del Est/Nord-Est
Visibilitat: 10 km
Núvols disperses a una alçada de 1600 ft
Núvols disperses a una alçada de 6000 ft
xàfecs en les proximitats

TAF: PTRO 270539Z 2706/2806 06010KT P6SM VCSH SCT016 SCT060

Observacions i pronòstics meteorològics de més de 4000 aeroports (METAR i TAF).

Les estacions disponibles són els punts grocs i vermells al mapa.

Posi el ratolí al punt desitjat per veure el nom de l'estació.

Feu clic per veure les observacions i els pronòstics meteorològics.

Per canviar el mapa: feu clic els botons verds amb una creu de color negre per apropar; al botó verd amb un guió per allunyar la imatge; o en les fletxes verdes per a mapes adjacents.


METAR-TAF: